Adelphi, Maryland
Current Conditions -  °F | °C
As of 12:15 AM on Sunday 21 Dec 2014 (Local Time) from KCGS Reporting Station
Broken Clouds Broken Clouds  
Wind Chill: -1°   Ceiling: 8000
Heat Index: -1°   Visibility: 10mi
Dew Point: -3°   Wind: 0mph
Humidity: 86%   Direction: NA
Pressure: 30.3"   Gusts: NA
Location:  39°N, 76.97°W
Report Text: KCGS 210515Z AUTO 00000KT 10SM SCT050 BKN080 M01/M03 A3030 RMK AO1
Loading
Personal Weather Stations






























Interactive Weather Map New forecast layout! Learn more

10-Day Weather Forecast

Advertisements
Track Severe Weather on mobile